sensor_id;sensor_type;location;lat;lon;timestamp;P1;durP1;ratioP1;P2;durP2;ratioP2
15482;SDS011;7843;50.330;7.312;2022-07-06T00:00:48;3.42;;;1.33;;
15482;SDS011;7843;50.330;7.312;2022-07-06T00:03:15;3.60;;;1.20;;
15482;SDS011;7843;50.330;7.312;2022-07-06T00:05:41;4.47;;;1.30;;
15482;SDS011;7843;50.330;7.312;2022-07-06T00:08:08;2.55;;;1.05;;
15482;SDS011;7843;50.330;7.312;2022-07-06T00:10:35;2.70;;;1.25;;
15482;SDS011;7843;50.330;7.312;2022-07-06T00:13:02;2.30;;;1.10;;
15482;SDS011;7843;50.330;7.312;2022-07-06T00:15:28;4.60;;;1.13;;
15482;SDS011;7843;50.330;7.312;2022-07-06T00:17:57;2.33;;;1.13;;
15482;SDS011;7843;50.330;7.312;2022-07-06T00:20:24;2.55;;;0.85;;
15482;SDS011;7843;50.330;7.312;2022-07-06T00:22:50;3.78;;;1.30;;
15482;SDS011;7843;50.330;7.312;2022-07-06T00:25:17;3.47;;;1.30;;
15482;SDS011;7843;50.330;7.312;2022-07-06T00:27:44;3.22;;;1.70;;
15482;SDS011;7843;50.330;7.312;2022-07-06T00:30:11;4.05;;;1.30;;
15482;SDS011;7843;50.330;7.312;2022-07-06T00:32:37;4.85;;;1.35;;
15482;SDS011;7843;50.330;7.312;2022-07-06T00:35:04;4.25;;;1.50;;
15482;SDS011;7843;50.330;7.312;2022-07-06T00:37:31;5.15;;;1.50;;
15482;SDS011;7843;50.330;7.312;2022-07-06T00:39:58;2.38;;;1.10;;
15482;SDS011;7843;50.330;7.312;2022-07-06T00:42:25;4.47;;;1.40;;
15482;SDS011;7843;50.330;7.312;2022-07-06T00:44:52;3.70;;;1.20;;
15482;SDS011;7843;50.330;7.312;2022-07-06T00:47:18;3.88;;;1.10;;
15482;SDS011;7843;50.330;7.312;2022-07-06T00:49:45;2.38;;;1.20;;
15482;SDS011;7843;50.330;7.312;2022-07-06T00:52:30;6.50;;;1.50;;
15482;SDS011;7843;50.330;7.312;2022-07-06T00:54:57;5.13;;;1.30;;
15482;SDS011;7843;50.330;7.312;2022-07-06T00:57:24;3.10;;;1.33;;
15482;SDS011;7843;50.330;7.312;2022-07-06T00:59:51;4.78;;;1.40;;
15482;SDS011;7843;50.330;7.312;2022-07-06T01:02:18;4.88;;;1.52;;
15482;SDS011;7843;50.330;7.312;2022-07-06T01:04:45;5.45;;;1.45;;
15482;SDS011;7843;50.330;7.312;2022-07-06T01:07:11;3.35;;;1.35;;
15482;SDS011;7843;50.330;7.312;2022-07-06T01:09:38;3.13;;;1.23;;
15482;SDS011;7843;50.330;7.312;2022-07-06T01:12:05;4.80;;;1.48;;
15482;SDS011;7843;50.330;7.312;2022-07-06T01:14:32;3.63;;;1.23;;
15482;SDS011;7843;50.330;7.312;2022-07-06T01:16:59;3.78;;;1.25;;
15482;SDS011;7843;50.330;7.312;2022-07-06T01:19:26;4.20;;;1.10;;
15482;SDS011;7843;50.330;7.312;2022-07-06T01:21:53;4.97;;;1.45;;
15482;SDS011;7843;50.330;7.312;2022-07-06T01:24:20;4.78;;;1.30;;
15482;SDS011;7843;50.330;7.312;2022-07-06T01:26:47;2.87;;;1.20;;
15482;SDS011;7843;50.330;7.312;2022-07-06T01:29:13;4.05;;;1.40;;
15482;SDS011;7843;50.330;7.312;2022-07-06T01:31:50;2.42;;;1.10;;
15482;SDS011;7843;50.330;7.312;2022-07-06T01:34:17;3.53;;;1.08;;
15482;SDS011;7843;50.330;7.312;2022-07-06T01:36:47;3.85;;;1.42;;
15482;SDS011;7843;50.330;7.312;2022-07-06T01:39:13;5.68;;;1.60;;
15482;SDS011;7843;50.330;7.312;2022-07-06T01:41:40;4.70;;;1.30;;
15482;SDS011;7843;50.330;7.312;2022-07-06T01:44:07;4.17;;;1.20;;
15482;SDS011;7843;50.330;7.312;2022-07-06T01:46:34;3.07;;;1.20;;
15482;SDS011;7843;50.330;7.312;2022-07-06T01:49:03;2.40;;;1.20;;
15482;SDS011;7843;50.330;7.312;2022-07-06T01:51:32;2.50;;;1.20;;
15482;SDS011;7843;50.330;7.312;2022-07-06T01:53:58;2.50;;;1.15;;
15482;SDS011;7843;50.330;7.312;2022-07-06T01:56:25;1.88;;;1.02;;
15482;SDS011;7843;50.330;7.312;2022-07-06T01:58:52;3.35;;;1.10;;
15482;SDS011;7843;50.330;7.312;2022-07-06T02:01:19;2.67;;;1.20;;
15482;SDS011;7843;50.330;7.312;2022-07-06T02:03:46;2.22;;;1.10;;
15482;SDS011;7843;50.330;7.312;2022-07-06T02:06:13;4.45;;;1.30;;
15482;SDS011;7843;50.330;7.312;2022-07-06T02:08:41;3.58;;;1.15;;
15482;SDS011;7843;50.330;7.312;2022-07-06T02:11:09;4.00;;;1.20;;
15482;SDS011;7843;50.330;7.312;2022-07-06T02:13:36;4.18;;;1.10;;
15482;SDS011;7843;50.330;7.312;2022-07-06T02:16:03;2.70;;;1.20;;
15482;SDS011;7843;50.330;7.312;2022-07-06T02:18:30;2.80;;;1.20;;
15482;SDS011;7843;50.330;7.312;2022-07-06T02:20:57;2.60;;;1.37;;
15482;SDS011;7843;50.330;7.312;2022-07-06T02:23:24;3.88;;;1.35;;
15482;SDS011;7843;50.330;7.312;2022-07-06T02:25:52;2.70;;;1.08;;
15482;SDS011;7843;50.330;7.312;2022-07-06T02:28:19;3.13;;;1.30;;
15482;SDS011;7843;50.330;7.312;2022-07-06T02:30:46;6.05;;;1.10;;
15482;SDS011;7843;50.330;7.312;2022-07-06T02:33:14;3.53;;;1.17;;
15482;SDS011;7843;50.330;7.312;2022-07-06T02:35:41;4.13;;;1.25;;
15482;SDS011;7843;50.330;7.312;2022-07-06T02:38:09;3.65;;;1.27;;
15482;SDS011;7843;50.330;7.312;2022-07-06T02:40:36;4.28;;;1.45;;
15482;SDS011;7843;50.330;7.312;2022-07-06T02:43:04;4.70;;;1.70;;
15482;SDS011;7843;50.330;7.312;2022-07-06T02:45:31;3.40;;;1.55;;
15482;SDS011;7843;50.330;7.312;2022-07-06T02:47:58;4.40;;;1.80;;
15482;SDS011;7843;50.330;7.312;2022-07-06T02:50:25;4.50;;;1.80;;
15482;SDS011;7843;50.330;7.312;2022-07-06T02:52:52;2.90;;;1.42;;
15482;SDS011;7843;50.330;7.312;2022-07-06T02:55:19;3.35;;;1.67;;
15482;SDS011;7843;50.330;7.312;2022-07-06T02:57:45;3.70;;;1.40;;
15482;SDS011;7843;50.330;7.312;2022-07-06T03:00:12;2.17;;;1.40;;
15482;SDS011;7843;50.330;7.312;2022-07-06T03:02:39;4.28;;;1.27;;
15482;SDS011;7843;50.330;7.312;2022-07-06T03:05:06;4.93;;;1.50;;
15482;SDS011;7843;50.330;7.312;2022-07-06T03:07:33;4.60;;;1.50;;
15482;SDS011;7843;50.330;7.312;2022-07-06T03:10:00;3.08;;;1.25;;
15482;SDS011;7843;50.330;7.312;2022-07-06T03:12:27;4.55;;;1.70;;
15482;SDS011;7843;50.330;7.312;2022-07-06T03:14:53;2.72;;;1.40;;
15482;SDS011;7843;50.330;7.312;2022-07-06T03:17:20;5.75;;;1.60;;
15482;SDS011;7843;50.330;7.312;2022-07-06T03:19:47;3.28;;;1.85;;
15482;SDS011;7843;50.330;7.312;2022-07-06T03:22:14;3.90;;;1.70;;
15482;SDS011;7843;50.330;7.312;2022-07-06T03:24:41;2.25;;;1.40;;
15482;SDS011;7843;50.330;7.312;2022-07-06T03:27:08;3.87;;;1.60;;
15482;SDS011;7843;50.330;7.312;2022-07-06T03:29:34;4.85;;;1.70;;
15482;SDS011;7843;50.330;7.312;2022-07-06T03:32:01;4.10;;;1.67;;
15482;SDS011;7843;50.330;7.312;2022-07-06T03:34:28;4.35;;;1.90;;
15482;SDS011;7843;50.330;7.312;2022-07-06T03:36:55;2.80;;;1.60;;
15482;SDS011;7843;50.330;7.312;2022-07-06T03:39:21;3.83;;;1.83;;
15482;SDS011;7843;50.330;7.312;2022-07-06T03:41:48;4.53;;;1.90;;
15482;SDS011;7843;50.330;7.312;2022-07-06T03:44:15;3.88;;;1.92;;
15482;SDS011;7843;50.330;7.312;2022-07-06T03:46:41;3.90;;;2.20;;
15482;SDS011;7843;50.330;7.312;2022-07-06T03:49:09;3.20;;;1.97;;
15482;SDS011;7843;50.330;7.312;2022-07-06T03:51:35;3.28;;;2.03;;
15482;SDS011;7843;50.330;7.312;2022-07-06T03:54:02;3.33;;;2.30;;
15482;SDS011;7843;50.330;7.312;2022-07-06T03:56:29;6.25;;;2.30;;
15482;SDS011;7843;50.330;7.312;2022-07-06T03:58:56;4.75;;;2.08;;
15482;SDS011;7843;50.330;7.312;2022-07-06T04:01:25;4.30;;;2.20;;
15482;SDS011;7843;50.330;7.312;2022-07-06T04:03:52;3.53;;;2.50;;
15482;SDS011;7843;50.330;7.312;2022-07-06T04:06:19;5.30;;;2.40;;
15482;SDS011;7843;50.330;7.312;2022-07-06T04:08:46;3.88;;;2.20;;
15482;SDS011;7843;50.330;7.312;2022-07-06T04:11:13;3.75;;;2.30;;
15482;SDS011;7843;50.330;7.312;2022-07-06T04:13:40;4.60;;;2.53;;
15482;SDS011;7843;50.330;7.312;2022-07-06T04:16:07;6.30;;;2.90;;
15482;SDS011;7843;50.330;7.312;2022-07-06T04:18:34;5.10;;;2.60;;
15482;SDS011;7843;50.330;7.312;2022-07-06T04:21:01;6.38;;;3.05;;
15482;SDS011;7843;50.330;7.312;2022-07-06T04:23:28;5.40;;;2.83;;
15482;SDS011;7843;50.330;7.312;2022-07-06T04:25:55;4.28;;;2.90;;
15482;SDS011;7843;50.330;7.312;2022-07-06T04:28:22;5.77;;;3.30;;
15482;SDS011;7843;50.330;7.312;2022-07-06T04:30:49;5.63;;;3.43;;
15482;SDS011;7843;50.330;7.312;2022-07-06T04:33:15;5.80;;;3.45;;
15482;SDS011;7843;50.330;7.312;2022-07-06T04:35:42;6.53;;;3.45;;
15482;SDS011;7843;50.330;7.312;2022-07-06T04:38:09;4.85;;;3.10;;
15482;SDS011;7843;50.330;7.312;2022-07-06T04:40:35;5.00;;;2.70;;
15482;SDS011;7843;50.330;7.312;2022-07-06T04:43:02;5.73;;;2.83;;
15482;SDS011;7843;50.330;7.312;2022-07-06T04:45:29;4.68;;;2.50;;
15482;SDS011;7843;50.330;7.312;2022-07-06T04:47:56;4.85;;;2.33;;
15482;SDS011;7843;50.330;7.312;2022-07-06T04:50:22;4.90;;;2.40;;
15482;SDS011;7843;50.330;7.312;2022-07-06T04:52:49;3.42;;;1.90;;
15482;SDS011;7843;50.330;7.312;2022-07-06T04:55:16;4.77;;;2.00;;
15482;SDS011;7843;50.330;7.312;2022-07-06T04:57:42;3.27;;;2.10;;
15482;SDS011;7843;50.330;7.312;2022-07-06T05:00:09;5.50;;;2.17;;
15482;SDS011;7843;50.330;7.312;2022-07-06T05:02:37;3.10;;;1.80;;
15482;SDS011;7843;50.330;7.312;2022-07-06T05:05:03;3.97;;;1.83;;
15482;SDS011;7843;50.330;7.312;2022-07-06T05:07:31;2.88;;;1.75;;
15482;SDS011;7843;50.330;7.312;2022-07-06T05:10:00;4.90;;;1.95;;
15482;SDS011;7843;50.330;7.312;2022-07-06T05:12:26;3.47;;;1.77;;
15482;SDS011;7843;50.330;7.312;2022-07-06T05:14:53;3.45;;;1.90;;
15482;SDS011;7843;50.330;7.312;2022-07-06T05:17:20;3.45;;;2.00;;
15482;SDS011;7843;50.330;7.312;2022-07-06T05:19:49;3.30;;;1.98;;
15482;SDS011;7843;50.330;7.312;2022-07-06T05:22:16;4.88;;;1.80;;
15482;SDS011;7843;50.330;7.312;2022-07-06T05:24:43;3.00;;;1.73;;
15482;SDS011;7843;50.330;7.312;2022-07-06T05:27:09;9.40;;;2.10;;
15482;SDS011;7843;50.330;7.312;2022-07-06T05:29:36;3.70;;;1.80;;
15482;SDS011;7843;50.330;7.312;2022-07-06T05:32:03;3.92;;;1.60;;
15482;SDS011;7843;50.330;7.312;2022-07-06T05:34:33;3.45;;;1.75;;
15482;SDS011;7843;50.330;7.312;2022-07-06T05:37:02;4.15;;;1.90;;
15482;SDS011;7843;50.330;7.312;2022-07-06T05:55:18;6.07;;;2.33;;
15482;SDS011;7843;50.330;7.312;2022-07-06T05:57:44;3.53;;;1.77;;
15482;SDS011;7843;50.330;7.312;2022-07-06T06:00:12;3.13;;;2.03;;
15482;SDS011;7843;50.330;7.312;2022-07-06T06:02:39;5.57;;;2.35;;
15482;SDS011;7843;50.330;7.312;2022-07-06T06:05:08;3.40;;;1.50;;
15482;SDS011;7843;50.330;7.312;2022-07-06T06:07:36;5.38;;;1.92;;
15482;SDS011;7843;50.330;7.312;2022-07-06T06:10:04;4.20;;;1.83;;
15482;SDS011;7843;50.330;7.312;2022-07-06T06:12:33;2.00;;;1.38;;
15482;SDS011;7843;50.330;7.312;2022-07-06T06:15:00;3.42;;;1.52;;
15482;SDS011;7843;50.330;7.312;2022-07-06T06:17:27;2.40;;;1.50;;
15482;SDS011;7843;50.330;7.312;2022-07-06T06:19:53;4.97;;;1.42;;
15482;SDS011;7843;50.330;7.312;2022-07-06T06:22:23;3.08;;;1.40;;
15482;SDS011;7843;50.330;7.312;2022-07-06T06:24:49;3.22;;;1.58;;
15482;SDS011;7843;50.330;7.312;2022-07-06T06:27:17;5.68;;;1.90;;
15482;SDS011;7843;50.330;7.312;2022-07-06T06:29:44;4.38;;;1.67;;
15482;SDS011;7843;50.330;7.312;2022-07-06T06:32:12;6.90;;;1.83;;
15482;SDS011;7843;50.330;7.312;2022-07-06T06:34:40;6.70;;;1.83;;
15482;SDS011;7843;50.330;7.312;2022-07-06T06:37:06;3.10;;;1.50;;
15482;SDS011;7843;50.330;7.312;2022-07-06T06:39:33;4.40;;;2.00;;
15482;SDS011;7843;50.330;7.312;2022-07-06T06:42:00;5.22;;;1.58;;
15482;SDS011;7843;50.330;7.312;2022-07-06T06:44:27;8.43;;;2.10;;
15482;SDS011;7843;50.330;7.312;2022-07-06T06:46:53;6.88;;;1.50;;
15482;SDS011;7843;50.330;7.312;2022-07-06T06:49:20;7.87;;;1.80;;
15482;SDS011;7843;50.330;7.312;2022-07-06T06:51:47;4.35;;;1.65;;
15482;SDS011;7843;50.330;7.312;2022-07-06T06:54:14;7.93;;;1.98;;
15482;SDS011;7843;50.330;7.312;2022-07-06T06:56:40;4.25;;;1.40;;
15482;SDS011;7843;50.330;7.312;2022-07-06T06:59:11;12.30;;;1.88;;
15482;SDS011;7843;50.330;7.312;2022-07-06T07:01:41;3.60;;;1.50;;
15482;SDS011;7843;50.330;7.312;2022-07-06T07:04:08;5.37;;;1.33;;
15482;SDS011;7843;50.330;7.312;2022-07-06T07:06:35;4.78;;;1.50;;
15482;SDS011;7843;50.330;7.312;2022-07-06T07:09:02;3.88;;;1.25;;
15482;SDS011;7843;50.330;7.312;2022-07-06T07:11:28;3.50;;;1.15;;
15482;SDS011;7843;50.330;7.312;2022-07-06T07:13:55;2.08;;;1.10;;
15482;SDS011;7843;50.330;7.312;2022-07-06T07:16:22;3.45;;;1.38;;
15482;SDS011;7843;50.330;7.312;2022-07-06T07:18:50;3.45;;;1.20;;
15482;SDS011;7843;50.330;7.312;2022-07-06T07:21:17;4.28;;;1.27;;
15482;SDS011;7843;50.330;7.312;2022-07-06T07:23:44;5.03;;;1.52;;
15482;SDS011;7843;50.330;7.312;2022-07-06T07:26:11;3.03;;;1.48;;
15482;SDS011;7843;50.330;7.312;2022-07-06T07:28:38;4.43;;;1.40;;
15482;SDS011;7843;50.330;7.312;2022-07-06T07:31:05;3.75;;;1.20;;
15482;SDS011;7843;50.330;7.312;2022-07-06T07:33:32;3.35;;;1.35;;
15482;SDS011;7843;50.330;7.312;2022-07-06T07:35:58;4.50;;;1.40;;
15482;SDS011;7843;50.330;7.312;2022-07-06T07:38:26;3.08;;;1.40;;
15482;SDS011;7843;50.330;7.312;2022-07-06T07:40:53;3.40;;;1.70;;
15482;SDS011;7843;50.330;7.312;2022-07-06T07:43:20;3.85;;;1.50;;
15482;SDS011;7843;50.330;7.312;2022-07-06T07:45:47;4.33;;;1.60;;
15482;SDS011;7843;50.330;7.312;2022-07-06T07:48:14;2.33;;;1.30;;
15482;SDS011;7843;50.330;7.312;2022-07-06T07:50:41;2.40;;;1.73;;
15482;SDS011;7843;50.330;7.312;2022-07-06T07:53:08;3.75;;;1.98;;
15482;SDS011;7843;50.330;7.312;2022-07-06T07:55:35;3.97;;;1.77;;
15482;SDS011;7843;50.330;7.312;2022-07-06T07:58:06;3.50;;;1.55;;
15482;SDS011;7843;50.330;7.312;2022-07-06T08:00:33;4.03;;;1.23;;
15482;SDS011;7843;50.330;7.312;2022-07-06T08:02:59;3.20;;;1.35;;
15482;SDS011;7843;50.330;7.312;2022-07-06T08:05:26;5.20;;;1.40;;
15482;SDS011;7843;50.330;7.312;2022-07-06T08:07:53;3.97;;;1.90;;
15482;SDS011;7843;50.330;7.312;2022-07-06T08:10:20;5.93;;;1.80;;
15482;SDS011;7843;50.330;7.312;2022-07-06T08:12:47;3.30;;;1.70;;
15482;SDS011;7843;50.330;7.312;2022-07-06T08:15:14;3.70;;;1.80;;
15482;SDS011;7843;50.330;7.312;2022-07-06T08:17:41;1.67;;;1.40;;
15482;SDS011;7843;50.330;7.312;2022-07-06T08:20:08;4.70;;;2.17;;
15482;SDS011;7843;50.330;7.312;2022-07-06T08:22:35;4.10;;;1.80;;
15482;SDS011;7843;50.330;7.312;2022-07-06T08:25:03;3.22;;;1.33;;
15482;SDS011;7843;50.330;7.312;2022-07-06T08:27:30;2.80;;;1.40;;
15482;SDS011;7843;50.330;7.312;2022-07-06T08:29:57;2.40;;;1.40;;
15482;SDS011;7843;50.330;7.312;2022-07-06T08:32:26;3.72;;;1.40;;
15482;SDS011;7843;50.330;7.312;2022-07-06T08:35:06;3.60;;;1.40;;
15482;SDS011;7843;50.330;7.312;2022-07-06T08:37:33;2.40;;;1.50;;
15482;SDS011;7843;50.330;7.312;2022-07-06T08:40:00;2.60;;;1.25;;
15482;SDS011;7843;50.330;7.312;2022-07-06T08:42:30;3.20;;;1.33;;
15482;SDS011;7843;50.330;7.312;2022-07-06T08:44:59;3.45;;;1.50;;
15482;SDS011;7843;50.330;7.312;2022-07-06T08:47:27;2.45;;;1.38;;
15482;SDS011;7843;50.330;7.312;2022-07-06T08:49:55;3.17;;;1.50;;
15482;SDS011;7843;50.330;7.312;2022-07-06T08:52:23;3.63;;;1.13;;
15482;SDS011;7843;50.330;7.312;2022-07-06T08:54:51;2.60;;;1.05;;
15482;SDS011;7843;50.330;7.312;2022-07-06T08:57:18;2.90;;;1.40;;
15482;SDS011;7843;50.330;7.312;2022-07-06T08:59:44;3.38;;;1.40;;
15482;SDS011;7843;50.330;7.312;2022-07-06T09:02:11;5.23;;;1.20;;
15482;SDS011;7843;50.330;7.312;2022-07-06T09:04:40;4.10;;;1.30;;
15482;SDS011;7843;50.330;7.312;2022-07-06T09:07:09;3.72;;;1.20;;
15482;SDS011;7843;50.330;7.312;2022-07-06T09:09:37;3.85;;;1.15;;
15482;SDS011;7843;50.330;7.312;2022-07-06T09:12:04;9.90;;;1.60;;
15482;SDS011;7843;50.330;7.312;2022-07-06T09:14:37;4.97;;;1.60;;
15482;SDS011;7843;50.330;7.312;2022-07-06T09:17:05;4.22;;;1.17;;
15482;SDS011;7843;50.330;7.312;2022-07-06T09:19:35;3.92;;;1.30;;
15482;SDS011;7843;50.330;7.312;2022-07-06T09:22:02;3.50;;;1.38;;
15482;SDS011;7843;50.330;7.312;2022-07-06T09:24:30;4.05;;;1.20;;
15482;SDS011;7843;50.330;7.312;2022-07-06T09:26:58;3.90;;;1.35;;
15482;SDS011;7843;50.330;7.312;2022-07-06T09:29:27;2.42;;;1.38;;
15482;SDS011;7843;50.330;7.312;2022-07-06T09:31:59;4.70;;;1.40;;
15482;SDS011;7843;50.330;7.312;2022-07-06T09:34:40;3.17;;;1.25;;
15482;SDS011;7843;50.330;7.312;2022-07-06T09:37:08;3.80;;;1.38;;
15482;SDS011;7843;50.330;7.312;2022-07-06T09:39:35;3.55;;;1.60;;
15482;SDS011;7843;50.330;7.312;2022-07-06T09:42:02;2.33;;;1.17;;
15482;SDS011;7843;50.330;7.312;2022-07-06T09:44:31;2.90;;;1.45;;
15482;SDS011;7843;50.330;7.312;2022-07-06T09:47:00;2.65;;;1.10;;
15482;SDS011;7843;50.330;7.312;2022-07-06T09:49:28;3.60;;;1.10;;
15482;SDS011;7843;50.330;7.312;2022-07-06T09:51:56;1.90;;;0.95;;
15482;SDS011;7843;50.330;7.312;2022-07-06T09:54:24;2.58;;;0.90;;
15482;SDS011;7843;50.330;7.312;2022-07-06T09:56:52;2.50;;;0.70;;
15482;SDS011;7843;50.330;7.312;2022-07-06T09:59:20;2.05;;;0.80;;
15482;SDS011;7843;50.330;7.312;2022-07-06T10:01:50;1.77;;;0.65;;
15482;SDS011;7843;50.330;7.312;2022-07-06T10:04:20;2.17;;;0.70;;
15482;SDS011;7843;50.330;7.312;2022-07-06T10:06:48;2.20;;;0.80;;
15482;SDS011;7843;50.330;7.312;2022-07-06T10:09:15;2.30;;;0.90;;
15482;SDS011;7843;50.330;7.312;2022-07-06T10:11:45;2.97;;;1.05;;
15482;SDS011;7843;50.330;7.312;2022-07-06T10:14:17;2.88;;;1.10;;
15482;SDS011;7843;50.330;7.312;2022-07-06T10:16:46;4.40;;;1.00;;
15482;SDS011;7843;50.330;7.312;2022-07-06T10:19:14;4.60;;;1.10;;
15482;SDS011;7843;50.330;7.312;2022-07-06T10:21:42;2.53;;;0.80;;
15482;SDS011;7843;50.330;7.312;2022-07-06T10:24:09;3.78;;;1.00;;
15482;SDS011;7843;50.330;7.312;2022-07-06T10:26:38;3.35;;;1.10;;
15482;SDS011;7843;50.330;7.312;2022-07-06T10:29:06;2.33;;;0.75;;
15482;SDS011;7843;50.330;7.312;2022-07-06T10:31:34;2.40;;;0.63;;
15482;SDS011;7843;50.330;7.312;2022-07-06T10:34:04;1.60;;;0.80;;
15482;SDS011;7843;50.330;7.312;2022-07-06T10:36:43;2.20;;;0.80;;
15482;SDS011;7843;50.330;7.312;2022-07-06T10:39:14;2.20;;;0.73;;
15482;SDS011;7843;50.330;7.312;2022-07-06T10:41:59;2.37;;;0.70;;
15482;SDS011;7843;50.330;7.312;2022-07-06T10:44:27;2.58;;;0.82;;
15482;SDS011;7843;50.330;7.312;2022-07-06T10:46:57;3.33;;;0.90;;
15482;SDS011;7843;50.330;7.312;2022-07-06T10:49:25;5.30;;;1.10;;
15482;SDS011;7843;50.330;7.312;2022-07-06T10:52:16;3.03;;;0.70;;
15482;SDS011;7843;50.330;7.312;2022-07-06T10:54:43;2.73;;;0.73;;
15482;SDS011;7843;50.330;7.312;2022-07-06T10:57:10;3.90;;;0.90;;
15482;SDS011;7843;50.330;7.312;2022-07-06T10:59:41;1.90;;;0.80;;
15482;SDS011;7843;50.330;7.312;2022-07-06T11:02:25;2.20;;;0.90;;
15482;SDS011;7843;50.330;7.312;2022-07-06T11:04:52;3.30;;;0.85;;
15482;SDS011;7843;50.330;7.312;2022-07-06T11:07:19;2.40;;;0.60;;
15482;SDS011;7843;50.330;7.312;2022-07-06T11:09:56;3.33;;;0.70;;
15482;SDS011;7843;50.330;7.312;2022-07-06T11:12:24;1.33;;;0.50;;
15482;SDS011;7843;50.330;7.312;2022-07-06T11:14:51;2.78;;;0.63;;
15482;SDS011;7843;50.330;7.312;2022-07-06T11:17:19;2.55;;;0.68;;
15482;SDS011;7843;50.330;7.312;2022-07-06T11:19:50;2.03;;;0.60;;
15482;SDS011;7843;50.330;7.312;2022-07-06T11:22:21;1.58;;;0.70;;
15482;SDS011;7843;50.330;7.312;2022-07-06T11:24:51;2.00;;;0.80;;
15482;SDS011;7843;50.330;7.312;2022-07-06T11:27:18;2.50;;;0.50;;
15482;SDS011;7843;50.330;7.312;2022-07-06T11:29:45;4.97;;;1.00;;
15482;SDS011;7843;50.330;7.312;2022-07-06T11:32:12;2.47;;;0.65;;
15482;SDS011;7843;50.330;7.312;2022-07-06T11:34:42;2.83;;;0.73;;
15482;SDS011;7843;50.330;7.312;2022-07-06T11:37:11;2.72;;;0.77;;
15482;SDS011;7843;50.330;7.312;2022-07-06T11:39:40;1.73;;;0.68;;
15482;SDS011;7843;50.330;7.312;2022-07-06T11:42:09;3.58;;;0.70;;
15482;SDS011;7843;50.330;7.312;2022-07-06T11:44:37;2.90;;;0.70;;
15482;SDS011;7843;50.330;7.312;2022-07-06T11:47:06;4.10;;;0.90;;
15482;SDS011;7843;50.330;7.312;2022-07-06T11:49:34;3.30;;;0.70;;
15482;SDS011;7843;50.330;7.312;2022-07-06T11:52:08;3.33;;;0.90;;
15482;SDS011;7843;50.330;7.312;2022-07-06T11:54:37;1.58;;;0.50;;
15482;SDS011;7843;50.330;7.312;2022-07-06T11:57:07;1.67;;;0.60;;
15482;SDS011;7843;50.330;7.312;2022-07-06T11:59:35;4.30;;;0.85;;
15482;SDS011;7843;50.330;7.312;2022-07-06T12:02:05;1.75;;;0.77;;
15482;SDS011;7843;50.330;7.312;2022-07-06T12:04:37;2.33;;;1.20;;
15482;SDS011;7843;50.330;7.312;2022-07-06T12:07:09;2.93;;;0.90;;
15482;SDS011;7843;50.330;7.312;2022-07-06T12:09:41;3.43;;;1.00;;
15482;SDS011;7843;50.330;7.312;2022-07-06T12:12:10;4.07;;;1.00;;
15482;SDS011;7843;50.330;7.312;2022-07-06T12:14:38;1.80;;;1.00;;
15482;SDS011;7843;50.330;7.312;2022-07-06T12:17:12;1.60;;;0.87;;
15482;SDS011;7843;50.330;7.312;2022-07-06T12:19:41;2.33;;;0.77;;
15482;SDS011;7843;50.330;7.312;2022-07-06T12:22:08;2.05;;;0.70;;
15482;SDS011;7843;50.330;7.312;2022-07-06T12:24:36;2.67;;;0.73;;
15482;SDS011;7843;50.330;7.312;2022-07-06T12:27:14;2.28;;;0.73;;
15482;SDS011;7843;50.330;7.312;2022-07-06T12:29:45;1.90;;;0.63;;
15482;SDS011;7843;50.330;7.312;2022-07-06T12:32:14;3.55;;;0.80;;
15482;SDS011;7843;50.330;7.312;2022-07-06T12:34:42;2.03;;;0.57;;
15482;SDS011;7843;50.330;7.312;2022-07-06T12:37:10;2.78;;;0.90;;
15482;SDS011;7843;50.330;7.312;2022-07-06T12:39:42;2.00;;;0.60;;
15482;SDS011;7843;50.330;7.312;2022-07-06T12:42:10;2.75;;;0.75;;
15482;SDS011;7843;50.330;7.312;2022-07-06T12:44:50;4.53;;;0.70;;
15482;SDS011;7843;50.330;7.312;2022-07-06T12:47:18;2.70;;;0.88;;
15482;SDS011;7843;50.330;7.312;2022-07-06T12:49:47;3.72;;;1.10;;
15482;SDS011;7843;50.330;7.312;2022-07-06T12:52:15;3.40;;;0.57;;
15482;SDS011;7843;50.330;7.312;2022-07-06T12:54:46;1.23;;;0.55;;
15482;SDS011;7843;50.330;7.312;2022-07-06T12:57:21;2.75;;;0.70;;
15482;SDS011;7843;50.330;7.312;2022-07-06T13:02:29;2.13;;;0.47;;
15482;SDS011;7843;50.330;7.312;2022-07-06T13:05:15;2.15;;;0.50;;
15482;SDS011;7843;50.330;7.312;2022-07-06T13:07:46;1.40;;;0.60;;
15482;SDS011;7843;50.330;7.312;2022-07-06T13:10:14;2.72;;;0.60;;
15482;SDS011;7843;50.330;7.312;2022-07-06T13:12:42;3.63;;;0.80;;
15482;SDS011;7843;50.330;7.312;2022-07-06T13:15:09;2.13;;;0.70;;
15482;SDS011;7843;50.330;7.312;2022-07-06T13:17:37;1.52;;;0.60;;
15482;SDS011;7843;50.330;7.312;2022-07-06T13:20:05;1.80;;;0.80;;
15482;SDS011;7843;50.330;7.312;2022-07-06T13:22:34;2.20;;;0.70;;
15482;SDS011;7843;50.330;7.312;2022-07-06T13:25:01;1.88;;;0.60;;
15482;SDS011;7843;50.330;7.312;2022-07-06T13:27:28;2.03;;;0.63;;
15482;SDS011;7843;50.330;7.312;2022-07-06T13:29:55;1.83;;;0.80;;
15482;SDS011;7843;50.330;7.312;2022-07-06T13:32:22;2.05;;;0.60;;
15482;SDS011;7843;50.330;7.312;2022-07-06T13:34:49;1.77;;;0.50;;
15482;SDS011;7843;50.330;7.312;2022-07-06T13:37:16;1.63;;;0.60;;
15482;SDS011;7843;50.330;7.312;2022-07-06T13:39:46;1.17;;;0.52;;
15482;SDS011;7843;50.330;7.312;2022-07-06T13:42:12;2.72;;;0.60;;
15482;SDS011;7843;50.330;7.312;2022-07-06T13:44:39;4.13;;;0.55;;
15482;SDS011;7843;50.330;7.312;2022-07-06T13:47:06;2.35;;;0.90;;
15482;SDS011;7843;50.330;7.312;2022-07-06T13:49:33;2.80;;;0.73;;
15482;SDS011;7843;50.330;7.312;2022-07-06T13:52:00;3.25;;;0.82;;
15482;SDS011;7843;50.330;7.312;2022-07-06T13:54:30;2.33;;;0.50;;
15482;SDS011;7843;50.330;7.312;2022-07-06T13:56:57;2.13;;;0.75;;
15482;SDS011;7843;50.330;7.312;2022-07-06T13:59:24;3.40;;;0.50;;
15482;SDS011;7843;50.330;7.312;2022-07-06T14:01:51;1.70;;;0.50;;
15482;SDS011;7843;50.330;7.312;2022-07-06T14:04:17;2.42;;;0.57;;
15482;SDS011;7843;50.330;7.312;2022-07-06T14:06:44;2.75;;;0.70;;
15482;SDS011;7843;50.330;7.312;2022-07-06T14:09:11;5.45;;;0.70;;
15482;SDS011;7843;50.330;7.312;2022-07-06T14:11:38;3.58;;;0.73;;
15482;SDS011;7843;50.330;7.312;2022-07-06T14:14:04;2.15;;;0.60;;
15482;SDS011;7843;50.330;7.312;2022-07-06T14:16:34;2.07;;;0.40;;
15482;SDS011;7843;50.330;7.312;2022-07-06T14:19:01;1.90;;;0.60;;
15482;SDS011;7843;50.330;7.312;2022-07-06T14:21:29;3.65;;;0.57;;
15482;SDS011;7843;50.330;7.312;2022-07-06T14:23:55;1.50;;;0.50;;
15482;SDS011;7843;50.330;7.312;2022-07-06T14:26:22;1.42;;;0.50;;
15482;SDS011;7843;50.330;7.312;2022-07-06T14:28:49;2.55;;;0.68;;
15482;SDS011;7843;50.330;7.312;2022-07-06T14:31:16;1.10;;;0.40;;
15482;SDS011;7843;50.330;7.312;2022-07-06T14:33:46;2.28;;;0.50;;
15482;SDS011;7843;50.330;7.312;2022-07-06T14:36:12;1.65;;;0.40;;
15482;SDS011;7843;50.330;7.312;2022-07-06T14:38:39;2.17;;;0.70;;
15482;SDS011;7843;50.330;7.312;2022-07-06T14:41:06;3.28;;;0.70;;
15482;SDS011;7843;50.330;7.312;2022-07-06T14:43:33;1.77;;;0.60;;
15482;SDS011;7843;50.330;7.312;2022-07-06T14:45:59;3.90;;;0.70;;
15482;SDS011;7843;50.330;7.312;2022-07-06T14:48:26;2.10;;;0.52;;
15482;SDS011;7843;50.330;7.312;2022-07-06T14:50:53;2.25;;;0.63;;
15482;SDS011;7843;50.330;7.312;2022-07-06T14:53:20;3.63;;;0.80;;
15482;SDS011;7843;50.330;7.312;2022-07-06T14:55:47;3.10;;;0.45;;
15482;SDS011;7843;50.330;7.312;2022-07-06T14:58:14;4.57;;;0.70;;
15482;SDS011;7843;50.330;7.312;2022-07-06T15:00:46;2.22;;;0.50;;
15482;SDS011;7843;50.330;7.312;2022-07-06T15:03:15;1.77;;;0.43;;
15482;SDS011;7843;50.330;7.312;2022-07-06T15:05:42;3.08;;;0.57;;
15482;SDS011;7843;50.330;7.312;2022-07-06T15:08:12;1.77;;;0.57;;
15482;SDS011;7843;50.330;7.312;2022-07-06T15:10:41;4.00;;;0.50;;
15482;SDS011;7843;50.330;7.312;2022-07-06T15:13:08;2.95;;;0.65;;
15482;SDS011;7843;50.330;7.312;2022-07-06T15:15:36;1.63;;;0.47;;
15482;SDS011;7843;50.330;7.312;2022-07-06T15:18:21;1.80;;;0.50;;
15482;SDS011;7843;50.330;7.312;2022-07-06T15:20:47;2.08;;;0.57;;
15482;SDS011;7843;50.330;7.312;2022-07-06T15:23:14;3.17;;;0.60;;